createdAt,value
2022-11-15T00:02:28.413Z,4.97
2022-11-15T00:05:14.733Z,5.20
2022-11-15T00:08:00.810Z,5.65
2022-11-15T00:10:57.057Z,5.38
2022-11-15T00:13:43.579Z,5.70
2022-11-15T00:16:29.941Z,5.38
2022-11-15T00:19:16.761Z,5.60
2022-11-15T00:22:03.411Z,5.50
2022-11-15T00:24:49.952Z,5.57
2022-11-15T00:27:36.585Z,5.47
2022-11-15T00:30:23.093Z,5.60
2022-11-15T00:33:10.604Z,4.85
2022-11-15T00:36:07.242Z,5.25
2022-11-15T00:38:53.662Z,4.78
2022-11-15T00:41:40.248Z,4.80
2022-11-15T00:44:26.649Z,5.00
2022-11-15T00:47:13.061Z,5.10
2022-11-15T00:50:00.132Z,4.68
2022-11-15T00:52:46.741Z,5.28
2022-11-15T00:55:34.400Z,5.30
2022-11-15T00:58:21.176Z,4.78
2022-11-15T01:01:08.744Z,4.75
2022-11-15T01:04:00.004Z,4.60
2022-11-15T01:06:47.584Z,4.43
2022-11-15T01:09:34.001Z,4.80
2022-11-15T01:12:20.636Z,4.65
2022-11-15T01:15:08.289Z,4.88
2022-11-15T01:17:54.684Z,4.88
2022-11-15T01:20:42.318Z,4.75
2022-11-15T01:23:28.957Z,4.95
2022-11-15T01:26:16.084Z,4.95
2022-11-15T01:29:02.523Z,4.93
2022-11-15T01:31:48.925Z,4.85
2022-11-15T01:34:35.430Z,4.70
2022-11-15T01:37:21.418Z,4.70
2022-11-15T01:40:08.062Z,4.78
2022-11-15T01:42:54.201Z,4.85
2022-11-15T01:45:40.638Z,4.32
2022-11-15T01:48:30.445Z,4.53
2022-11-15T01:51:18.671Z,4.68
2022-11-15T01:54:09.749Z,4.70
2022-11-15T01:57:01.029Z,5.10
2022-11-15T01:59:47.686Z,4.57
2022-11-15T02:02:34.746Z,4.05
2022-11-15T02:05:21.125Z,4.50
2022-11-15T02:08:08.244Z,4.53
2022-11-15T02:10:54.704Z,4.60
2022-11-15T02:13:41.158Z,4.75
2022-11-15T02:16:44.909Z,4.30
2022-11-15T02:19:34.336Z,4.28
2022-11-15T02:22:38.758Z,4.30
2022-11-15T02:25:37.149Z,4.43
2022-11-15T02:28:41.977Z,4.28
2022-11-15T02:31:33.380Z,4.50
2022-11-15T02:34:27.856Z,4.50
2022-11-15T02:37:20.210Z,4.65
2022-11-15T02:40:15.378Z,4.72
2022-11-15T02:43:30.951Z,4.38
2022-11-15T02:46:17.447Z,4.45
2022-11-15T02:49:03.934Z,4.05
2022-11-15T02:51:51.207Z,4.15
2022-11-15T02:54:37.581Z,4.03
2022-11-15T02:57:41.140Z,4.10
2022-11-15T03:00:29.751Z,3.70
2022-11-15T03:03:35.194Z,4.20
2022-11-15T03:06:39.685Z,4.25
2022-11-15T03:09:31.082Z,4.30
2022-11-15T03:12:20.490Z,4.35
2022-11-15T03:15:09.902Z,4.20
2022-11-15T03:17:59.204Z,4.05
2022-11-15T03:20:46.306Z,4.28
2022-11-15T03:23:33.768Z,3.80
2022-11-15T03:26:21.983Z,3.85
2022-11-15T03:29:11.022Z,3.53
2022-11-15T03:32:00.744Z,4.00
2022-11-15T03:34:52.969Z,3.90
2022-11-15T03:37:42.407Z,3.95
2022-11-15T03:40:38.625Z,3.70
2022-11-15T03:43:31.273Z,3.88
2022-11-15T03:46:40.440Z,3.92
2022-11-15T03:49:29.706Z,3.72
2022-11-15T03:52:18.940Z,3.92
2022-11-15T03:55:06.557Z,4.10
2022-11-15T03:57:55.052Z,3.97
2022-11-15T04:00:41.273Z,4.00
2022-11-15T04:03:27.889Z,3.80
2022-11-15T04:06:14.378Z,3.60
2022-11-15T04:09:00.715Z,3.40
2022-11-15T04:11:47.246Z,3.50
2022-11-15T04:14:33.853Z,3.40
2022-11-15T04:17:20.341Z,3.40
2022-11-15T04:20:26.104Z,3.80
2022-11-15T04:23:33.317Z,3.55
2022-11-15T04:26:21.189Z,3.92
2022-11-15T04:29:26.144Z,3.55
2022-11-15T04:32:12.555Z,3.80
2022-11-15T04:34:59.195Z,3.50
2022-11-15T04:37:49.237Z,3.45
2022-11-15T04:40:36.259Z,3.90
2022-11-15T04:43:22.397Z,3.60
2022-11-15T04:46:08.902Z,3.40
2022-11-15T04:48:59.013Z,3.83
2022-11-15T04:51:45.860Z,3.90
2022-11-15T04:54:32.231Z,3.33
2022-11-15T04:57:18.435Z,3.65
2022-11-15T05:00:08.783Z,3.75
2022-11-15T05:03:13.584Z,3.30
2022-11-15T05:06:00.587Z,3.67
2022-11-15T05:08:47.097Z,3.63
2022-11-15T05:11:33.357Z,3.25
2022-11-15T05:14:19.872Z,3.50
2022-11-15T05:17:06.076Z,3.28
2022-11-15T05:19:53.117Z,3.55
2022-11-15T05:22:39.754Z,3.17
2022-11-15T05:25:25.998Z,3.67
2022-11-15T05:28:12.457Z,3.63
2022-11-15T05:31:02.896Z,3.58
2022-11-15T05:33:50.627Z,3.63
2022-11-15T05:36:42.712Z,3.65
2022-11-15T05:39:29.344Z,3.75
2022-11-15T05:42:16.326Z,3.30
2022-11-15T05:45:04.609Z,3.70
2022-11-15T05:47:51.541Z,3.40
2022-11-15T05:50:43.428Z,3.90
2022-11-15T05:53:30.215Z,3.63
2022-11-15T05:56:16.517Z,3.80
2022-11-15T05:59:03.557Z,3.47
2022-11-15T06:01:50.227Z,3.40
2022-11-15T06:04:36.565Z,3.53
2022-11-15T06:07:22.611Z,3.67
2022-11-15T06:10:09.243Z,3.75
2022-11-15T06:13:05.759Z,3.65
2022-11-15T06:15:52.176Z,3.80
2022-11-15T06:18:38.644Z,3.65
2022-11-15T06:21:25.410Z,3.75
2022-11-15T06:24:11.779Z,4.00
2022-11-15T06:26:58.757Z,3.72
2022-11-15T06:29:45.629Z,4.25
2022-11-15T06:32:31.896Z,3.95
2022-11-15T06:35:19.216Z,4.13
2022-11-15T06:38:06.872Z,3.95
2022-11-15T06:40:53.020Z,4.07
2022-11-15T06:43:39.657Z,4.28
2022-11-15T06:46:26.319Z,4.03
2022-11-15T06:49:12.804Z,4.53
2022-11-15T06:51:59.292Z,4.22
2022-11-15T06:54:46.401Z,4.10
2022-11-15T06:57:33.437Z,4.05
2022-11-15T07:00:20.422Z,4.28
2022-11-15T07:03:06.633Z,4.32
2022-11-15T07:05:54.516Z,4.53
2022-11-15T07:08:42.783Z,4.10
2022-11-15T07:11:29.089Z,4.40
2022-11-15T07:14:15.726Z,4.80
2022-11-15T07:17:02.140Z,4.60
2022-11-15T07:19:48.552Z,4.75
2022-11-15T07:22:35.097Z,4.43
2022-11-15T07:25:21.475Z,4.65
2022-11-15T07:28:08.035Z,4.40
2022-11-15T07:30:54.635Z,4.88
2022-11-15T07:33:40.909Z,4.32
2022-11-15T07:36:27.315Z,4.88
2022-11-15T07:39:15.173Z,4.70
2022-11-15T07:42:20.465Z,4.82
2022-11-15T07:45:07.431Z,4.65
2022-11-15T07:47:53.977Z,4.72
2022-11-15T07:50:43.460Z,4.35
2022-11-15T07:53:30.230Z,4.40
2022-11-15T07:56:17.064Z,4.50
2022-11-15T07:59:03.498Z,4.38
2022-11-15T08:01:49.964Z,4.65
2022-11-15T08:04:36.468Z,4.68
2022-11-15T08:07:22.816Z,4.30
2022-11-15T08:10:09.759Z,4.38
2022-11-15T08:13:03.192Z,5.03
2022-11-15T08:15:54.790Z,4.88
2022-11-15T08:18:43.679Z,5.03
2022-11-15T08:21:30.207Z,4.70
2022-11-15T08:24:17.779Z,4.30
2022-11-15T08:27:04.287Z,4.18
2022-11-15T08:29:55.504Z,4.45
2022-11-15T08:32:44.934Z,4.00
2022-11-15T08:35:31.716Z,3.67
2022-11-15T08:38:18.224Z,4.40
2022-11-15T08:41:07.148Z,3.70
2022-11-15T08:43:53.766Z,3.80
2022-11-15T08:46:40.173Z,3.97
2022-11-15T08:49:26.737Z,4.30
2022-11-15T08:52:12.960Z,3.85
2022-11-15T08:54:59.725Z,4.07
2022-11-15T08:57:46.476Z,4.07
2022-11-15T09:00:32.941Z,3.75
2022-11-15T09:03:19.531Z,3.78
2022-11-15T09:06:06.213Z,3.45
2022-11-15T09:08:52.749Z,3.80
2022-11-15T09:11:39.017Z,3.90
2022-11-15T09:14:26.429Z,3.97
2022-11-15T09:17:13.038Z,3.40
2022-11-15T09:19:59.553Z,3.70
2022-11-15T09:22:46.028Z,3.65
2022-11-15T09:25:32.877Z,3.42
2022-11-15T09:28:19.497Z,3.58
2022-11-15T09:31:07.615Z,3.22
2022-11-15T09:33:54.162Z,3.40
2022-11-15T09:36:40.520Z,3.30
2022-11-15T09:39:26.844Z,3.20
2022-11-15T09:42:25.379Z,3.28
2022-11-15T09:45:15.722Z,3.05
2022-11-15T09:48:20.535Z,3.37
2022-11-15T09:51:16.722Z,3.13
2022-11-15T09:56:52.252Z,2.92
2022-11-15T09:59:19.976Z,3.00
2022-11-15T10:01:57.058Z,3.40
2022-11-15T10:04:24.964Z,2.80
2022-11-15T10:07:11.337Z,2.83
2022-11-15T10:09:42.244Z,3.15
2022-11-15T10:12:11.097Z,2.92
2022-11-15T10:14:38.965Z,3.17
2022-11-15T10:17:26.751Z,2.65
2022-11-15T10:20:05.922Z,2.80
2022-11-15T10:22:42.143Z,2.60
2022-11-15T10:25:17.904Z,2.85
2022-11-15T10:27:47.044Z,2.92
2022-11-15T10:30:16.391Z,2.60
2022-11-15T10:32:45.557Z,2.70
2022-11-15T10:35:39.712Z,3.00
2022-11-15T10:38:10.786Z,2.80
2022-11-15T10:40:41.206Z,2.70
2022-11-15T10:43:12.062Z,2.33
2022-11-15T10:45:39.891Z,2.30
2022-11-15T10:48:49.430Z,2.47
2022-11-15T10:51:29.289Z,2.45
2022-11-15T10:53:59.379Z,2.60
2022-11-15T10:56:28.313Z,2.60
2022-11-15T10:58:57.580Z,2.63
2022-11-15T11:01:26.844Z,2.80
2022-11-15T11:04:11.020Z,2.60
2022-11-15T11:06:50.308Z,2.30
2022-11-15T11:09:24.073Z,2.30
2022-11-15T11:11:53.013Z,2.30
2022-11-15T11:14:37.216Z,2.60
2022-11-15T11:17:04.953Z,2.30
2022-11-15T11:19:36.016Z,2.53
2022-11-15T11:22:13.123Z,2.40
2022-11-15T11:24:55.859Z,2.40
2022-11-15T11:27:23.573Z,3.00
2022-11-15T11:29:59.279Z,2.50
2022-11-15T11:32:27.661Z,2.20
2022-11-15T11:35:01.547Z,2.63
2022-11-15T11:37:48.242Z,2.28
2022-11-15T11:40:22.140Z,2.00
2022-11-15T11:43:02.894Z,2.58
2022-11-15T11:45:36.900Z,2.47
2022-11-15T11:48:25.553Z,2.50
2022-11-15T11:50:54.238Z,2.50
2022-11-15T11:53:22.040Z,2.50
2022-11-15T11:55:51.852Z,2.45
2022-11-15T11:58:23.795Z,2.35
2022-11-15T12:00:53.676Z,2.47
2022-11-15T12:03:30.618Z,2.30
2022-11-15T12:06:07.643Z,2.40
2022-11-15T12:08:43.384Z,2.50
2022-11-15T12:11:11.148Z,2.35
2022-11-15T12:13:40.245Z,2.53
2022-11-15T12:16:13.021Z,2.40
2022-11-15T12:18:40.902Z,2.55
2022-11-15T12:21:36.415Z,2.22
2022-11-15T12:24:06.984Z,2.50
2022-11-15T12:26:41.353Z,2.58
2022-11-15T12:29:17.940Z,2.20
2022-11-15T12:31:47.924Z,2.20
2022-11-15T12:34:21.688Z,1.90
2022-11-15T12:36:50.748Z,2.20
2022-11-15T12:39:19.206Z,2.35
2022-11-15T12:42:07.417Z,2.58
2022-11-15T12:44:40.684Z,2.28
2022-11-15T12:47:11.458Z,2.10
2022-11-15T12:49:39.263Z,2.33
2022-11-15T12:52:08.722Z,2.03
2022-11-15T12:54:42.572Z,2.05
2022-11-15T12:57:10.357Z,2.13
2022-11-15T12:59:55.482Z,2.10
2022-11-15T13:02:31.298Z,2.55
2022-11-15T13:05:19.418Z,2.28
2022-11-15T13:07:47.244Z,2.40
2022-11-15T13:10:15.048Z,2.10
2022-11-15T13:12:45.976Z,2.20
2022-11-15T13:15:13.875Z,2.35
2022-11-15T13:17:51.850Z,2.15
2022-11-15T13:20:21.722Z,2.20
2022-11-15T13:23:08.152Z,2.10
2022-11-15T13:25:45.197Z,2.30
2022-11-15T13:28:12.970Z,1.90
2022-11-15T13:30:40.886Z,2.30
2022-11-15T13:33:18.743Z,2.10
2022-11-15T13:35:51.995Z,1.80
2022-11-15T13:38:31.037Z,2.05
2022-11-15T13:40:59.687Z,1.90
2022-11-15T13:43:30.638Z,1.80
2022-11-15T13:46:15.554Z,1.98
2022-11-15T13:48:44.028Z,1.90
2022-11-15T13:51:30.712Z,1.80
2022-11-15T13:54:10.592Z,1.80
2022-11-15T13:56:38.920Z,1.77
2022-11-15T13:59:26.037Z,1.70
2022-11-15T14:01:54.385Z,1.80
2022-11-15T14:04:24.490Z,1.73
2022-11-15T14:06:57.179Z,1.80
2022-11-15T14:09:24.982Z,1.73
2022-11-15T14:11:56.677Z,1.75
2022-11-15T14:14:28.600Z,1.80
2022-11-15T14:16:57.704Z,1.90
2022-11-15T14:19:25.427Z,1.60
2022-11-15T14:22:11.709Z,1.95
2022-11-15T14:24:40.074Z,1.40
2022-11-15T14:27:27.678Z,1.40
2022-11-15T14:29:55.838Z,1.38
2022-11-15T14:32:25.092Z,1.60
2022-11-15T14:35:03.392Z,1.60
2022-11-15T14:37:36.045Z,1.45
2022-11-15T14:40:05.310Z,1.23
2022-11-15T14:42:33.573Z,1.60
2022-11-15T14:45:01.352Z,1.80
2022-11-15T14:47:29.105Z,1.50
2022-11-15T14:49:56.876Z,1.50
2022-11-15T14:52:30.473Z,1.60
2022-11-15T14:55:00.403Z,1.70
2022-11-15T14:57:28.266Z,1.20
2022-11-15T14:59:56.190Z,1.50
2022-11-15T15:02:25.143Z,1.50
2022-11-15T15:04:54.676Z,1.50
2022-11-15T15:07:22.956Z,1.40
2022-11-15T15:09:50.849Z,1.50
2022-11-15T15:12:19.911Z,1.50
2022-11-15T15:14:48.539Z,1.23
2022-11-15T15:17:16.445Z,1.35
2022-11-15T15:19:44.599Z,1.45
2022-11-15T15:22:16.667Z,1.30
2022-11-15T15:24:48.022Z,1.48
2022-11-15T15:27:16.002Z,1.40
2022-11-15T15:29:43.792Z,1.48
2022-11-15T15:32:12.702Z,1.30
2022-11-15T15:34:40.674Z,1.50
2022-11-15T15:37:28.793Z,1.23
2022-11-15T15:39:57.397Z,1.30
2022-11-15T15:42:25.543Z,1.30
2022-11-15T15:44:53.441Z,1.40
2022-11-15T15:47:24.988Z,1.40
2022-11-15T15:49:52.816Z,1.30
2022-11-15T15:52:20.587Z,1.13
2022-11-15T15:54:48.416Z,1.33
2022-11-15T15:57:16.193Z,1.20
2022-11-15T15:59:43.997Z,1.42
2022-11-15T16:02:14.967Z,1.10
2022-11-15T16:04:42.853Z,1.20
2022-11-15T16:07:17.637Z,1.20
2022-11-15T16:10:01.070Z,1.25
2022-11-15T16:12:35.476Z,1.15
2022-11-15T16:15:04.230Z,1.10
2022-11-15T16:17:34.662Z,1.23
2022-11-15T16:20:02.672Z,1.50
2022-11-15T16:22:30.429Z,1.33
2022-11-15T16:24:58.471Z,0.90
2022-11-15T16:27:26.312Z,1.20
2022-11-15T16:29:54.097Z,1.15
2022-11-15T16:32:21.968Z,1.00
2022-11-15T16:34:49.866Z,1.13
2022-11-15T16:37:23.817Z,1.20
2022-11-15T16:39:53.898Z,1.20
2022-11-15T16:42:23.772Z,1.20
2022-11-15T16:44:51.561Z,1.10
2022-11-15T16:47:23.055Z,1.27
2022-11-15T16:49:50.783Z,1.20
2022-11-15T16:52:21.409Z,1.10
2022-11-15T16:54:49.521Z,1.10
2022-11-15T16:57:17.267Z,1.17
2022-11-15T16:59:45.068Z,1.00
2022-11-15T17:02:15.888Z,1.20
2022-11-15T17:04:43.759Z,1.08
2022-11-15T17:07:11.676Z,0.95
2022-11-15T17:09:39.645Z,1.15
2022-11-15T17:12:07.435Z,1.02
2022-11-15T17:14:35.252Z,1.00
2022-11-15T17:17:03.016Z,0.93
2022-11-15T17:19:30.763Z,0.90
2022-11-15T17:21:58.550Z,1.10
2022-11-15T17:24:26.468Z,0.95
2022-11-15T17:26:54.250Z,1.10
2022-11-15T17:29:22.065Z,0.98
2022-11-15T17:31:49.871Z,1.08
2022-11-15T17:34:17.678Z,1.00
2022-11-15T17:36:45.609Z,1.10
2022-11-15T17:39:13.579Z,0.88
2022-11-15T17:41:42.421Z,1.27
2022-11-15T17:44:10.206Z,1.00
2022-11-15T17:46:38.074Z,1.00
2022-11-15T17:49:05.909Z,1.00
2022-11-15T17:51:33.835Z,1.05
2022-11-15T17:54:01.962Z,1.10
2022-11-15T17:56:33.146Z,1.30
2022-11-15T17:59:01.402Z,1.15
2022-11-15T18:01:30.629Z,1.10
2022-11-15T18:04:00.887Z,0.90
2022-11-15T18:06:30.664Z,0.93
2022-11-15T18:08:58.610Z,1.10
2022-11-15T18:11:27.955Z,1.08
2022-11-15T18:13:57.613Z,1.00
2022-11-15T18:16:26.663Z,1.13
2022-11-15T18:18:55.086Z,1.02
2022-11-15T18:21:24.766Z,0.90
2022-11-15T18:23:57.535Z,0.90
2022-11-15T18:26:27.248Z,1.08
2022-11-15T18:28:59.067Z,1.20
2022-11-15T18:31:27.889Z,1.00
2022-11-15T18:33:55.978Z,0.90
2022-11-15T18:36:28.136Z,0.95
2022-11-15T18:38:56.797Z,0.80
2022-11-15T18:41:28.386Z,1.10
2022-11-15T18:43:57.093Z,0.90
2022-11-15T18:46:26.354Z,0.90
2022-11-15T18:48:55.070Z,1.00
2022-11-15T18:51:26.993Z,1.10
2022-11-15T18:53:55.442Z,1.33
2022-11-15T18:56:23.918Z,0.75
2022-11-15T18:58:53.712Z,1.08
2022-11-15T19:01:22.756Z,1.00
2022-11-15T19:03:51.460Z,1.00
2022-11-15T19:06:19.197Z,1.15
2022-11-15T19:08:47.665Z,1.05
2022-11-15T19:11:19.722Z,0.98
2022-11-15T19:13:48.442Z,0.93
2022-11-15T19:16:17.027Z,1.10
2022-11-15T19:18:44.729Z,1.13
2022-11-15T19:21:16.056Z,1.10
2022-11-15T19:23:44.295Z,1.00
2022-11-15T19:26:16.045Z,1.30
2022-11-15T19:28:44.236Z,1.38
2022-11-15T19:31:13.175Z,1.20
2022-11-15T19:33:43.073Z,1.02
2022-11-15T19:36:15.429Z,1.20
2022-11-15T19:38:43.406Z,1.20
2022-11-15T19:41:12.298Z,0.98
2022-11-15T19:43:40.792Z,1.30
2022-11-15T19:46:10.411Z,1.25
2022-11-15T19:48:38.225Z,1.10
2022-11-15T19:51:07.690Z,1.23
2022-11-15T19:53:36.274Z,0.90
2022-11-15T19:56:08.709Z,1.38
2022-11-15T19:58:36.613Z,1.30
2022-11-15T20:01:07.435Z,1.20
2022-11-15T20:03:36.923Z,1.10
2022-11-15T20:06:09.058Z,1.30
2022-11-15T20:08:37.378Z,1.13
2022-11-15T20:11:06.436Z,1.02
2022-11-15T20:13:34.340Z,1.20
2022-11-15T20:16:02.116Z,1.50
2022-11-15T20:18:33.033Z,1.25
2022-11-15T20:21:01.295Z,1.20
2022-11-15T20:23:29.086Z,1.23
2022-11-15T20:25:56.903Z,1.30
2022-11-15T20:28:26.201Z,1.35
2022-11-15T20:30:58.631Z,1.27
2022-11-15T20:33:26.831Z,1.50
2022-11-15T20:35:54.782Z,1.30
2022-11-15T20:38:26.973Z,1.27
2022-11-15T20:40:59.014Z,1.30
2022-11-15T20:43:28.412Z,1.20
2022-11-15T20:45:56.225Z,1.40
2022-11-15T20:48:24.188Z,1.38
2022-11-15T20:50:52.812Z,1.40
2022-11-15T20:53:21.363Z,1.08
2022-11-15T20:55:51.174Z,1.52
2022-11-15T20:58:19.855Z,1.30
2022-11-15T21:00:47.691Z,1.20
2022-11-15T21:03:15.782Z,1.50
2022-11-15T21:05:44.965Z,1.40
2022-11-15T21:08:13.449Z,1.20
2022-11-15T21:11:00.274Z,1.50
2022-11-15T21:13:28.258Z,1.30
2022-11-15T21:15:58.166Z,1.42
2022-11-15T21:18:26.291Z,1.30
2022-11-15T21:20:54.077Z,1.67
2022-11-15T21:23:22.249Z,1.45
2022-11-15T21:25:52.919Z,1.33
2022-11-15T21:28:20.643Z,1.60
2022-11-15T21:31:01.302Z,1.40
2022-11-15T21:33:29.174Z,1.30
2022-11-15T21:35:57.525Z,1.40
2022-11-15T21:38:25.590Z,1.63
2022-11-15T21:40:53.762Z,1.40
2022-11-15T21:43:22.110Z,1.40
2022-11-15T21:45:56.694Z,1.10
2022-11-15T21:48:24.455Z,1.50
2022-11-15T21:51:07.976Z,1.50
2022-11-15T21:53:35.928Z,1.40
2022-11-15T21:56:04.241Z,1.30
2022-11-15T21:58:32.266Z,1.30
2022-11-15T22:01:18.681Z,1.50
2022-11-15T22:03:46.856Z,1.40
2022-11-15T22:06:18.041Z,1.67
2022-11-15T22:08:46.684Z,1.33
2022-11-15T22:11:47.363Z,1.38
2022-11-15T22:14:15.329Z,1.33
2022-11-15T22:16:43.098Z,1.45
2022-11-15T22:19:11.736Z,1.30
2022-11-15T22:21:40.250Z,1.67
2022-11-15T22:24:08.307Z,1.30
2022-11-15T22:26:36.113Z,1.20
2022-11-15T22:29:03.895Z,1.33
2022-11-15T22:31:31.599Z,1.50
2022-11-15T22:33:59.391Z,1.30
2022-11-15T22:36:34.897Z,1.17
2022-11-15T22:39:10.403Z,1.48
2022-11-15T22:41:38.181Z,1.50
2022-11-15T22:44:06.036Z,1.30
2022-11-15T22:46:33.751Z,1.50
2022-11-15T22:49:03.469Z,1.20
2022-11-15T22:51:31.423Z,1.23
2022-11-15T22:53:59.349Z,1.42
2022-11-15T22:56:27.064Z,1.50
2022-11-15T22:58:54.769Z,1.77
2022-11-15T23:01:22.972Z,1.40
2022-11-15T23:03:50.804Z,1.35
2022-11-15T23:06:18.723Z,1.67
2022-11-15T23:08:46.715Z,1.33
2022-11-15T23:11:32.993Z,1.35
2022-11-15T23:14:00.739Z,1.40
2022-11-15T23:16:34.841Z,1.30
2022-11-15T23:19:05.328Z,1.40
2022-11-15T23:21:51.409Z,1.35
2022-11-15T23:24:19.614Z,1.20
2022-11-15T23:26:48.388Z,1.65
2022-11-15T23:29:17.196Z,1.40
2022-11-15T23:32:04.034Z,1.50
2022-11-15T23:34:32.462Z,1.52
2022-11-15T23:37:00.735Z,1.30
2022-11-15T23:39:28.680Z,1.52
2022-11-15T23:41:56.548Z,1.48
2022-11-15T23:44:24.799Z,1.20
2022-11-15T23:46:52.656Z,1.35
2022-11-15T23:49:20.617Z,1.60
2022-11-15T23:51:48.650Z,1.50
2022-11-15T23:54:16.598Z,1.48
2022-11-15T23:56:44.324Z,1.60
2022-11-15T23:59:12.050Z,1.33
